sensor_id;sensor_type;location;lat;lon;timestamp;temperature;humidity
24814;DHT22;12904;50.088;11.414;2023-11-22T00:02:02;3.40;99.90
24814;DHT22;12904;50.088;11.414;2023-11-22T00:04:28;3.30;99.90
24814;DHT22;12904;50.088;11.414;2023-11-22T00:06:54;3.40;99.90
24814;DHT22;12904;50.088;11.414;2023-11-22T00:09:19;3.40;99.90
24814;DHT22;12904;50.088;11.414;2023-11-22T00:11:48;3.40;99.90
24814;DHT22;12904;50.088;11.414;2023-11-22T00:14:14;3.40;99.90
24814;DHT22;12904;50.088;11.414;2023-11-22T00:16:40;3.40;99.90
24814;DHT22;12904;50.088;11.414;2023-11-22T00:19:06;3.30;99.90
24814;DHT22;12904;50.088;11.414;2023-11-22T00:21:32;3.30;99.90
24814;DHT22;12904;50.088;11.414;2023-11-22T00:23:57;3.30;99.90
24814;DHT22;12904;50.088;11.414;2023-11-22T00:26:23;3.20;99.90
24814;DHT22;12904;50.088;11.414;2023-11-22T00:28:49;3.20;99.90
24814;DHT22;12904;50.088;11.414;2023-11-22T00:31:15;3.10;99.90
24814;DHT22;12904;50.088;11.414;2023-11-22T00:33:40;3.10;99.90
24814;DHT22;12904;50.088;11.414;2023-11-22T00:36:06;3.10;99.90
24814;DHT22;12904;50.088;11.414;2023-11-22T00:38:34;3.10;99.90
24814;DHT22;12904;50.088;11.414;2023-11-22T00:41:01;3.00;99.90
24814;DHT22;12904;50.088;11.414;2023-11-22T00:43:30;3.00;99.90
24814;DHT22;12904;50.088;11.414;2023-11-22T00:45:56;3.00;99.90
24814;DHT22;12904;50.088;11.414;2023-11-22T00:48:22;3.00;99.90
24814;DHT22;12904;50.088;11.414;2023-11-22T00:50:48;3.00;99.90
24814;DHT22;12904;50.088;11.414;2023-11-22T00:53:14;3.00;99.90
24814;DHT22;12904;50.088;11.414;2023-11-22T00:55:40;3.00;99.90
24814;DHT22;12904;50.088;11.414;2023-11-22T00:58:07;3.00;99.90
24814;DHT22;12904;50.088;11.414;2023-11-22T01:00:33;3.00;99.90
24814;DHT22;12904;50.088;11.414;2023-11-22T01:02:59;3.00;99.90
24814;DHT22;12904;50.088;11.414;2023-11-22T01:05:24;3.00;99.90
24814;DHT22;12904;50.088;11.414;2023-11-22T01:07:50;3.00;99.90
24814;DHT22;12904;50.088;11.414;2023-11-22T01:10:15;3.00;99.90
24814;DHT22;12904;50.088;11.414;2023-11-22T01:12:41;3.00;99.90
24814;DHT22;12904;50.088;11.414;2023-11-22T01:15:07;2.90;99.90
24814;DHT22;12904;50.088;11.414;2023-11-22T01:17:34;2.90;99.90
24814;DHT22;12904;50.088;11.414;2023-11-22T01:20:01;2.90;99.90
24814;DHT22;12904;50.088;11.414;2023-11-22T01:22:26;2.90;99.90
24814;DHT22;12904;50.088;11.414;2023-11-22T01:24:53;2.80;99.90
24814;DHT22;12904;50.088;11.414;2023-11-22T01:27:19;2.80;99.90
24814;DHT22;12904;50.088;11.414;2023-11-22T01:29:45;2.70;99.90
24814;DHT22;12904;50.088;11.414;2023-11-22T01:32:11;2.70;99.90
24814;DHT22;12904;50.088;11.414;2023-11-22T01:34:36;2.70;99.90
24814;DHT22;12904;50.088;11.414;2023-11-22T01:37:02;2.70;99.90
24814;DHT22;12904;50.088;11.414;2023-11-22T01:39:28;2.70;99.90
24814;DHT22;12904;50.088;11.414;2023-11-22T01:41:54;2.70;99.90
24814;DHT22;12904;50.088;11.414;2023-11-22T01:44:19;2.70;99.90
24814;DHT22;12904;50.088;11.414;2023-11-22T01:46:45;2.70;99.90
24814;DHT22;12904;50.088;11.414;2023-11-22T01:49:11;2.60;99.90
24814;DHT22;12904;50.088;11.414;2023-11-22T01:51:39;2.60;99.90
24814;DHT22;12904;50.088;11.414;2023-11-22T01:54:08;2.60;99.90
24814;DHT22;12904;50.088;11.414;2023-11-22T01:56:36;2.60;99.90
24814;DHT22;12904;50.088;11.414;2023-11-22T01:59:03;2.60;99.90
24814;DHT22;12904;50.088;11.414;2023-11-22T02:01:30;2.60;99.90
24814;DHT22;12904;50.088;11.414;2023-11-22T02:03:57;2.60;99.90
24814;DHT22;12904;50.088;11.414;2023-11-22T02:06:23;2.50;99.90
24814;DHT22;12904;50.088;11.414;2023-11-22T02:08:49;2.50;99.90
24814;DHT22;12904;50.088;11.414;2023-11-22T02:11:17;2.50;99.90
24814;DHT22;12904;50.088;11.414;2023-11-22T02:13:48;2.40;99.90
24814;DHT22;12904;50.088;11.414;2023-11-22T02:16:15;2.40;99.90
24814;DHT22;12904;50.088;11.414;2023-11-22T02:18:44;2.40;99.90
24814;DHT22;12904;50.088;11.414;2023-11-22T02:21:10;2.40;99.90
24814;DHT22;12904;50.088;11.414;2023-11-22T02:23:36;2.40;99.90
24814;DHT22;12904;50.088;11.414;2023-11-22T02:26:02;2.40;99.90
24814;DHT22;12904;50.088;11.414;2023-11-22T02:28:28;2.40;99.90
24814;DHT22;12904;50.088;11.414;2023-11-22T02:30:54;2.40;99.90
24814;DHT22;12904;50.088;11.414;2023-11-22T02:33:20;2.40;99.90
24814;DHT22;12904;50.088;11.414;2023-11-22T02:35:45;2.40;99.90
24814;DHT22;12904;50.088;11.414;2023-11-22T02:38:11;2.40;99.90
24814;DHT22;12904;50.088;11.414;2023-11-22T02:40:37;2.40;99.90
24814;DHT22;12904;50.088;11.414;2023-11-22T02:43:03;2.40;99.90
24814;DHT22;12904;50.088;11.414;2023-11-22T02:45:33;2.40;99.90
24814;DHT22;12904;50.088;11.414;2023-11-22T02:47:58;2.40;99.90
24814;DHT22;12904;50.088;11.414;2023-11-22T02:50:27;2.40;99.90
24814;DHT22;12904;50.088;11.414;2023-11-22T02:52:53;2.40;99.90
24814;DHT22;12904;50.088;11.414;2023-11-22T02:55:18;2.40;99.90
24814;DHT22;12904;50.088;11.414;2023-11-22T02:57:45;2.30;99.90
24814;DHT22;12904;50.088;11.414;2023-11-22T03:00:11;2.30;99.90
24814;DHT22;12904;50.088;11.414;2023-11-22T03:02:40;2.30;99.90
24814;DHT22;12904;50.088;11.414;2023-11-22T03:05:10;2.30;99.90
24814;DHT22;12904;50.088;11.414;2023-11-22T03:07:36;2.30;99.90
24814;DHT22;12904;50.088;11.414;2023-11-22T03:10:03;2.30;99.90
24814;DHT22;12904;50.088;11.414;2023-11-22T03:12:29;2.30;99.90
24814;DHT22;12904;50.088;11.414;2023-11-22T03:14:54;2.30;99.90
24814;DHT22;12904;50.088;11.414;2023-11-22T03:17:24;2.30;99.90
24814;DHT22;12904;50.088;11.414;2023-11-22T03:19:50;2.30;99.90
24814;DHT22;12904;50.088;11.414;2023-11-22T03:22:15;2.30;99.90
24814;DHT22;12904;50.088;11.414;2023-11-22T03:24:41;2.30;99.90
24814;DHT22;12904;50.088;11.414;2023-11-22T03:27:07;2.30;99.90
24814;DHT22;12904;50.088;11.414;2023-11-22T03:29:33;2.30;99.90
24814;DHT22;12904;50.088;11.414;2023-11-22T03:32:00;2.30;99.90
24814;DHT22;12904;50.088;11.414;2023-11-22T03:34:26;2.30;99.90
24814;DHT22;12904;50.088;11.414;2023-11-22T03:36:51;2.20;99.90
24814;DHT22;12904;50.088;11.414;2023-11-22T03:39:17;2.20;99.90
24814;DHT22;12904;50.088;11.414;2023-11-22T03:41:43;2.10;99.90
24814;DHT22;12904;50.088;11.414;2023-11-22T03:44:09;2.10;99.90
24814;DHT22;12904;50.088;11.414;2023-11-22T03:46:38;2.20;99.90
24814;DHT22;12904;50.088;11.414;2023-11-22T03:49:07;2.20;99.90
24814;DHT22;12904;50.088;11.414;2023-11-22T03:51:33;2.20;99.90
24814;DHT22;12904;50.088;11.414;2023-11-22T03:53:59;2.20;99.90
24814;DHT22;12904;50.088;11.414;2023-11-22T03:56:25;2.20;99.90
24814;DHT22;12904;50.088;11.414;2023-11-22T03:58:51;2.10;99.90
24814;DHT22;12904;50.088;11.414;2023-11-22T04:01:17;2.10;99.90
24814;DHT22;12904;50.088;11.414;2023-11-22T04:03:44;2.10;99.90
24814;DHT22;12904;50.088;11.414;2023-11-22T04:06:09;2.10;99.90
24814;DHT22;12904;50.088;11.414;2023-11-22T04:08:35;2.10;99.90
24814;DHT22;12904;50.088;11.414;2023-11-22T04:11:01;2.10;99.90
24814;DHT22;12904;50.088;11.414;2023-11-22T04:13:27;2.10;99.90
24814;DHT22;12904;50.088;11.414;2023-11-22T04:15:53;2.10;99.90
24814;DHT22;12904;50.088;11.414;2023-11-22T04:18:18;2.10;99.90
24814;DHT22;12904;50.088;11.414;2023-11-22T04:20:44;2.10;99.90
24814;DHT22;12904;50.088;11.414;2023-11-22T04:23:11;2.10;99.90
24814;DHT22;12904;50.088;11.414;2023-11-22T04:25:39;2.10;99.90
24814;DHT22;12904;50.088;11.414;2023-11-22T04:28:06;2.10;99.90
24814;DHT22;12904;50.088;11.414;2023-11-22T04:30:34;2.10;99.90
24814;DHT22;12904;50.088;11.414;2023-11-22T04:32:59;2.00;99.90
24814;DHT22;12904;50.088;11.414;2023-11-22T04:35:25;2.00;99.90
24814;DHT22;12904;50.088;11.414;2023-11-22T04:37:51;2.00;99.90
24814;DHT22;12904;50.088;11.414;2023-11-22T04:40:16;2.00;99.90
24814;DHT22;12904;50.088;11.414;2023-11-22T04:42:43;2.00;99.90
24814;DHT22;12904;50.088;11.414;2023-11-22T04:45:09;1.90;99.90
24814;DHT22;12904;50.088;11.414;2023-11-22T04:47:35;1.90;99.90
24814;DHT22;12904;50.088;11.414;2023-11-22T04:50:01;1.90;99.90
24814;DHT22;12904;50.088;11.414;2023-11-22T04:52:26;1.90;99.90
24814;DHT22;12904;50.088;11.414;2023-11-22T04:54:52;1.90;99.90
24814;DHT22;12904;50.088;11.414;2023-11-22T04:57:18;1.80;99.90
24814;DHT22;12904;50.088;11.414;2023-11-22T04:59:43;1.80;99.90
24814;DHT22;12904;50.088;11.414;2023-11-22T05:02:10;1.80;99.90
24814;DHT22;12904;50.088;11.414;2023-11-22T05:04:37;1.80;99.90
24814;DHT22;12904;50.088;11.414;2023-11-22T05:07:02;1.80;99.90
24814;DHT22;12904;50.088;11.414;2023-11-22T05:09:28;1.70;99.90
24814;DHT22;12904;50.088;11.414;2023-11-22T05:11:54;1.80;99.90
24814;DHT22;12904;50.088;11.414;2023-11-22T05:14:19;1.80;99.90
24814;DHT22;12904;50.088;11.414;2023-11-22T05:16:45;1.80;99.90
24814;DHT22;12904;50.088;11.414;2023-11-22T05:19:11;1.80;99.90
24814;DHT22;12904;50.088;11.414;2023-11-22T05:21:36;1.80;99.90
24814;DHT22;12904;50.088;11.414;2023-11-22T05:24:02;1.80;99.90
24814;DHT22;12904;50.088;11.414;2023-11-22T05:26:28;1.90;99.90
24814;DHT22;12904;50.088;11.414;2023-11-22T05:28:53;1.80;99.90
24814;DHT22;12904;50.088;11.414;2023-11-22T05:31:22;1.80;99.90
24814;DHT22;12904;50.088;11.414;2023-11-22T05:33:48;1.80;99.90
24814;DHT22;12904;50.088;11.414;2023-11-22T05:36:14;1.80;99.90
24814;DHT22;12904;50.088;11.414;2023-11-22T05:38:42;1.80;99.90
24814;DHT22;12904;50.088;11.414;2023-11-22T05:41:08;1.80;99.90
24814;DHT22;12904;50.088;11.414;2023-11-22T05:43:34;1.80;99.90
24814;DHT22;12904;50.088;11.414;2023-11-22T05:46:02;1.70;99.90
24814;DHT22;12904;50.088;11.414;2023-11-22T05:48:28;1.70;99.90
24814;DHT22;12904;50.088;11.414;2023-11-22T05:50:54;1.70;99.90
24814;DHT22;12904;50.088;11.414;2023-11-22T05:53:19;1.70;99.90
24814;DHT22;12904;50.088;11.414;2023-11-22T05:55:47;1.70;99.90
24814;DHT22;12904;50.088;11.414;2023-11-22T05:58:16;1.70;99.90
24814;DHT22;12904;50.088;11.414;2023-11-22T06:00:46;1.70;99.90
24814;DHT22;12904;50.088;11.414;2023-11-22T06:03:13;1.70;99.90
24814;DHT22;12904;50.088;11.414;2023-11-22T06:05:39;1.60;99.90
24814;DHT22;12904;50.088;11.414;2023-11-22T06:08:05;1.60;99.90
24814;DHT22;12904;50.088;11.414;2023-11-22T06:10:31;1.60;99.90
24814;DHT22;12904;50.088;11.414;2023-11-22T06:12:56;1.50;99.90
24814;DHT22;12904;50.088;11.414;2023-11-22T06:15:22;1.50;99.90
24814;DHT22;12904;50.088;11.414;2023-11-22T06:17:48;1.50;99.90
24814;DHT22;12904;50.088;11.414;2023-11-22T06:20:15;1.50;99.90
24814;DHT22;12904;50.088;11.414;2023-11-22T06:22:41;1.50;99.90
24814;DHT22;12904;50.088;11.414;2023-11-22T06:25:11;1.50;99.90
24814;DHT22;12904;50.088;11.414;2023-11-22T06:27:37;1.50;99.90
24814;DHT22;12904;50.088;11.414;2023-11-22T06:30:03;1.40;99.90
24814;DHT22;12904;50.088;11.414;2023-11-22T06:32:29;1.30;99.90
24814;DHT22;12904;50.088;11.414;2023-11-22T06:34:55;1.30;99.90
24814;DHT22;12904;50.088;11.414;2023-11-22T06:37:20;1.30;99.90
24814;DHT22;12904;50.088;11.414;2023-11-22T06:39:46;1.30;99.90
24814;DHT22;12904;50.088;11.414;2023-11-22T06:42:12;1.30;99.90
24814;DHT22;12904;50.088;11.414;2023-11-22T06:44:38;1.30;99.90
24814;DHT22;12904;50.088;11.414;2023-11-22T06:47:05;1.20;99.90
24814;DHT22;12904;50.088;11.414;2023-11-22T06:49:32;1.20;99.90
24814;DHT22;12904;50.088;11.414;2023-11-22T06:51:58;1.20;99.90
24814;DHT22;12904;50.088;11.414;2023-11-22T06:54:24;1.20;99.90
24814;DHT22;12904;50.088;11.414;2023-11-22T06:56:49;1.20;99.90
24814;DHT22;12904;50.088;11.414;2023-11-22T06:59:19;1.20;99.90
24814;DHT22;12904;50.088;11.414;2023-11-22T07:01:44;1.20;99.90
24814;DHT22;12904;50.088;11.414;2023-11-22T07:04:11;1.20;99.90
24814;DHT22;12904;50.088;11.414;2023-11-22T07:06:36;1.20;99.90
24814;DHT22;12904;50.088;11.414;2023-11-22T07:09:05;1.20;99.90
24814;DHT22;12904;50.088;11.414;2023-11-22T07:11:35;1.20;99.90
24814;DHT22;12904;50.088;11.414;2023-11-22T07:14:02;1.20;99.90
24814;DHT22;12904;50.088;11.414;2023-11-22T07:16:29;1.30;99.90
24814;DHT22;12904;50.088;11.414;2023-11-22T07:18:56;1.20;99.90
24814;DHT22;12904;50.088;11.414;2023-11-22T07:21:22;1.30;99.90
24814;DHT22;12904;50.088;11.414;2023-11-22T07:23:48;1.30;99.90
24814;DHT22;12904;50.088;11.414;2023-11-22T07:26:14;1.20;99.90
24814;DHT22;12904;50.088;11.414;2023-11-22T07:28:40;1.30;99.90
24814;DHT22;12904;50.088;11.414;2023-11-22T07:31:09;1.30;99.90
24814;DHT22;12904;50.088;11.414;2023-11-22T07:33:36;1.30;99.90
24814;DHT22;12904;50.088;11.414;2023-11-22T07:36:04;1.30;99.90
24814;DHT22;12904;50.088;11.414;2023-11-22T07:38:30;1.30;99.90
24814;DHT22;12904;50.088;11.414;2023-11-22T07:40:57;1.30;99.90
24814;DHT22;12904;50.088;11.414;2023-11-22T07:43:23;1.30;99.90
24814;DHT22;12904;50.088;11.414;2023-11-22T07:45:48;1.30;99.90
24814;DHT22;12904;50.088;11.414;2023-11-22T07:48:16;1.40;99.90
24814;DHT22;12904;50.088;11.414;2023-11-22T07:50:42;1.30;99.90
24814;DHT22;12904;50.088;11.414;2023-11-22T07:53:14;1.30;99.90
24814;DHT22;12904;50.088;11.414;2023-11-22T07:55:40;1.30;99.90
24814;DHT22;12904;50.088;11.414;2023-11-22T07:58:07;1.30;99.90
24814;DHT22;12904;50.088;11.414;2023-11-22T08:00:34;1.30;99.90
24814;DHT22;12904;50.088;11.414;2023-11-22T08:03:00;1.30;99.90
24814;DHT22;12904;50.088;11.414;2023-11-22T08:05:29;1.30;99.90
24814;DHT22;12904;50.088;11.414;2023-11-22T08:08:03;1.30;99.90
24814;DHT22;12904;50.088;11.414;2023-11-22T08:10:36;1.30;99.90
24814;DHT22;12904;50.088;11.414;2023-11-22T08:13:01;1.30;99.90
24814;DHT22;12904;50.088;11.414;2023-11-22T08:15:29;1.30;99.90
24814;DHT22;12904;50.088;11.414;2023-11-22T08:17:57;1.30;99.90
24814;DHT22;12904;50.088;11.414;2023-11-22T08:20:22;1.30;99.90
24814;DHT22;12904;50.088;11.414;2023-11-22T08:22:48;1.30;99.90
24814;DHT22;12904;50.088;11.414;2023-11-22T08:25:16;1.30;99.90
24814;DHT22;12904;50.088;11.414;2023-11-22T08:27:42;1.30;99.90
24814;DHT22;12904;50.088;11.414;2023-11-22T08:30:08;1.30;99.90
24814;DHT22;12904;50.088;11.414;2023-11-22T08:32:39;1.30;99.90
24814;DHT22;12904;50.088;11.414;2023-11-22T08:35:07;1.40;99.90
24814;DHT22;12904;50.088;11.414;2023-11-22T08:37:34;1.40;99.90
24814;DHT22;12904;50.088;11.414;2023-11-22T08:40:01;1.40;99.90
24814;DHT22;12904;50.088;11.414;2023-11-22T08:42:27;1.40;99.90
24814;DHT22;12904;50.088;11.414;2023-11-22T08:44:52;1.40;99.90
24814;DHT22;12904;50.088;11.414;2023-11-22T08:47:33;1.40;99.90
24814;DHT22;12904;50.088;11.414;2023-11-22T08:49:59;1.50;99.90
24814;DHT22;12904;50.088;11.414;2023-11-22T08:52:25;1.50;99.90
24814;DHT22;12904;50.088;11.414;2023-11-22T08:54:50;1.60;99.90
24814;DHT22;12904;50.088;11.414;2023-11-22T08:57:17;1.60;99.90
24814;DHT22;12904;50.088;11.414;2023-11-22T08:59:43;1.60;99.90
24814;DHT22;12904;50.088;11.414;2023-11-22T09:02:09;1.60;99.90
24814;DHT22;12904;50.088;11.414;2023-11-22T09:04:35;1.50;99.90
24814;DHT22;12904;50.088;11.414;2023-11-22T09:07:01;1.50;99.90
24814;DHT22;12904;50.088;11.414;2023-11-22T09:09:26;1.50;99.90
24814;DHT22;12904;50.088;11.414;2023-11-22T09:11:59;1.60;99.90
24814;DHT22;12904;50.088;11.414;2023-11-22T09:14:25;1.60;99.90
24814;DHT22;12904;50.088;11.414;2023-11-22T09:16:51;1.60;99.90
24814;DHT22;12904;50.088;11.414;2023-11-22T09:19:23;1.60;99.90
24814;DHT22;12904;50.088;11.414;2023-11-22T09:21:50;1.70;99.90
24814;DHT22;12904;50.088;11.414;2023-11-22T09:24:16;1.80;99.90
24814;DHT22;12904;50.088;11.414;2023-11-22T09:26:42;2.00;99.90
24814;DHT22;12904;50.088;11.414;2023-11-22T09:29:08;2.10;99.90
24814;DHT22;12904;50.088;11.414;2023-11-22T09:31:35;2.10;99.90
24814;DHT22;12904;50.088;11.414;2023-11-22T09:34:01;2.00;99.90
24814;DHT22;12904;50.088;11.414;2023-11-22T09:36:29;2.00;99.90
24814;DHT22;12904;50.088;11.414;2023-11-22T09:38:57;2.00;99.90
24814;DHT22;12904;50.088;11.414;2023-11-22T09:41:23;2.00;99.90
24814;DHT22;12904;50.088;11.414;2023-11-22T09:43:50;2.10;99.90
24814;DHT22;12904;50.088;11.414;2023-11-22T09:46:16;2.20;99.90
24814;DHT22;12904;50.088;11.414;2023-11-22T09:48:47;2.40;99.90
24814;DHT22;12904;50.088;11.414;2023-11-22T09:51:29;2.50;99.90
24814;DHT22;12904;50.088;11.414;2023-11-22T09:54:04;2.50;99.90
24814;DHT22;12904;50.088;11.414;2023-11-22T09:56:30;2.40;99.90
24814;DHT22;12904;50.088;11.414;2023-11-22T09:58:59;2.20;99.90
24814;DHT22;12904;50.088;11.414;2023-11-22T10:01:27;2.10;99.90
24814;DHT22;12904;50.088;11.414;2023-11-22T10:04:05;2.00;99.90
24814;DHT22;12904;50.088;11.414;2023-11-22T10:06:33;1.90;99.90
24814;DHT22;12904;50.088;11.414;2023-11-22T10:09:03;2.00;99.90
24814;DHT22;12904;50.088;11.414;2023-11-22T10:11:34;2.00;99.90
24814;DHT22;12904;50.088;11.414;2023-11-22T10:14:01;2.00;99.90
24814;DHT22;12904;50.088;11.414;2023-11-22T10:16:27;2.00;99.90
24814;DHT22;12904;50.088;11.414;2023-11-22T10:18:52;2.00;99.90
24814;DHT22;12904;50.088;11.414;2023-11-22T10:23:46;2.10;99.90
24814;DHT22;12904;50.088;11.414;2023-11-22T10:26:13;2.20;99.90
24814;DHT22;12904;50.088;11.414;2023-11-22T10:28:41;2.20;99.90
24814;DHT22;12904;50.088;11.414;2023-11-22T10:31:09;2.30;99.90
24814;DHT22;12904;50.088;11.414;2023-11-22T10:33:44;2.40;99.90
24814;DHT22;12904;50.088;11.414;2023-11-22T10:36:10;2.50;99.90
24814;DHT22;12904;50.088;11.414;2023-11-22T10:38:37;2.80;99.90
24814;DHT22;12904;50.088;11.414;2023-11-22T10:41:09;3.00;99.90
24814;DHT22;12904;50.088;11.414;2023-11-22T10:43:37;3.20;99.90
24814;DHT22;12904;50.088;11.414;2023-11-22T10:46:03;3.40;99.90
24814;DHT22;12904;50.088;11.414;2023-11-22T10:48:31;3.70;99.90
24814;DHT22;12904;50.088;11.414;2023-11-22T10:51:00;3.80;99.90
24814;DHT22;12904;50.088;11.414;2023-11-22T10:53:34;3.80;99.90
24814;DHT22;12904;50.088;11.414;2023-11-22T10:56:07;3.60;99.90
24814;DHT22;12904;50.088;11.414;2023-11-22T10:58:47;3.30;99.90
24814;DHT22;12904;50.088;11.414;2023-11-22T11:01:18;3.10;99.90
24814;DHT22;12904;50.088;11.414;2023-11-22T11:03:55;3.00;99.90
24814;DHT22;12904;50.088;11.414;2023-11-22T11:06:25;3.10;99.90
24814;DHT22;12904;50.088;11.414;2023-11-22T11:09:03;3.30;99.90
24814;DHT22;12904;50.088;11.414;2023-11-22T11:11:34;3.50;99.90
24814;DHT22;12904;50.088;11.414;2023-11-22T11:14:01;3.50;99.90
24814;DHT22;12904;50.088;11.414;2023-11-22T11:16:28;3.40;99.90
24814;DHT22;12904;50.088;11.414;2023-11-22T11:18:57;3.20;99.90
24814;DHT22;12904;50.088;11.414;2023-11-22T11:21:25;3.00;99.90
24814;DHT22;12904;50.088;11.414;2023-11-22T11:23:52;2.90;99.90
24814;DHT22;12904;50.088;11.414;2023-11-22T11:26:21;2.80;99.90
24814;DHT22;12904;50.088;11.414;2023-11-22T11:28:49;2.70;99.90
24814;DHT22;12904;50.088;11.414;2023-11-22T11:31:16;2.60;99.90
24814;DHT22;12904;50.088;11.414;2023-11-22T11:38:51;2.40;99.90
24814;DHT22;12904;50.088;11.414;2023-11-22T11:41:17;2.40;99.90
24814;DHT22;12904;50.088;11.414;2023-11-22T11:43:47;2.30;99.90
24814;DHT22;12904;50.088;11.414;2023-11-22T11:46:17;2.20;99.90
24814;DHT22;12904;50.088;11.414;2023-11-22T11:48:49;2.10;99.90
24814;DHT22;12904;50.088;11.414;2023-11-22T11:51:23;2.10;99.90
24814;DHT22;12904;50.088;11.414;2023-11-22T11:53:49;2.10;99.90
24814;DHT22;12904;50.088;11.414;2023-11-22T11:56:16;2.00;99.90
24814;DHT22;12904;50.088;11.414;2023-11-22T11:58:43;2.00;99.90
24814;DHT22;12904;50.088;11.414;2023-11-22T12:01:11;2.00;99.90
24814;DHT22;12904;50.088;11.414;2023-11-22T12:03:37;1.90;99.90
24814;DHT22;12904;50.088;11.414;2023-11-22T12:06:04;1.90;99.90
24814;DHT22;12904;50.088;11.414;2023-11-22T12:08:30;2.00;99.90
24814;DHT22;12904;50.088;11.414;2023-11-22T12:10:59;2.00;99.90
24814;DHT22;12904;50.088;11.414;2023-11-22T12:13:25;2.00;99.90
24814;DHT22;12904;50.088;11.414;2023-11-22T12:15:52;2.10;99.90
24814;DHT22;12904;50.088;11.414;2023-11-22T12:18:19;2.10;99.90
24814;DHT22;12904;50.088;11.414;2023-11-22T12:21:00;2.10;99.90
24814;DHT22;12904;50.088;11.414;2023-11-22T12:23:27;2.10;99.90
24814;DHT22;12904;50.088;11.414;2023-11-22T12:26:01;2.10;99.90
24814;DHT22;12904;50.088;11.414;2023-11-22T12:28:28;2.10;99.90
24814;DHT22;12904;50.088;11.414;2023-11-22T12:30:54;2.10;99.90
24814;DHT22;12904;50.088;11.414;2023-11-22T12:33:20;2.10;99.90
24814;DHT22;12904;50.088;11.414;2023-11-22T12:35:46;2.00;99.90
24814;DHT22;12904;50.088;11.414;2023-11-22T12:38:14;1.90;99.90
24814;DHT22;12904;50.088;11.414;2023-11-22T12:40:46;1.90;99.90
24814;DHT22;12904;50.088;11.414;2023-11-22T12:43:13;1.80;99.90
24814;DHT22;12904;50.088;11.414;2023-11-22T12:45:39;1.80;99.90
24814;DHT22;12904;50.088;11.414;2023-11-22T12:48:25;1.90;99.90
24814;DHT22;12904;50.088;11.414;2023-11-22T12:50:51;1.90;99.90
24814;DHT22;12904;50.088;11.414;2023-11-22T12:53:18;2.00;99.90
24814;DHT22;12904;50.088;11.414;2023-11-22T12:55:48;2.10;99.90
24814;DHT22;12904;50.088;11.414;2023-11-22T12:58:24;2.10;99.90
24814;DHT22;12904;50.088;11.414;2023-11-22T13:00:52;2.10;99.90
24814;DHT22;12904;50.088;11.414;2023-11-22T13:03:24;2.10;99.90
24814;DHT22;12904;50.088;11.414;2023-11-22T13:05:50;2.10;99.90
24814;DHT22;12904;50.088;11.414;2023-11-22T13:08:17;2.10;99.90
24814;DHT22;12904;50.088;11.414;2023-11-22T13:10:44;2.10;99.90
24814;DHT22;12904;50.088;11.414;2023-11-22T13:13:12;2.10;99.90
24814;DHT22;12904;50.088;11.414;2023-11-22T13:15:38;2.10;99.90
24814;DHT22;12904;50.088;11.414;2023-11-22T13:18:08;2.10;99.90
24814;DHT22;12904;50.088;11.414;2023-11-22T13:20:34;2.20;99.90
24814;DHT22;12904;50.088;11.414;2023-11-22T13:23:01;2.20;99.90
24814;DHT22;12904;50.088;11.414;2023-11-22T13:25:28;2.30;99.90
24814;DHT22;12904;50.088;11.414;2023-11-22T13:27:54;2.30;99.90
24814;DHT22;12904;50.088;11.414;2023-11-22T13:30:22;2.40;99.90
24814;DHT22;12904;50.088;11.414;2023-11-22T13:32:54;2.40;99.90
24814;DHT22;12904;50.088;11.414;2023-11-22T13:35:27;2.40;99.90
24814;DHT22;12904;50.088;11.414;2023-11-22T13:37:57;2.30;99.90
24814;DHT22;12904;50.088;11.414;2023-11-22T13:40:23;2.30;99.90
24814;DHT22;12904;50.088;11.414;2023-11-22T13:42:51;2.20;99.90
24814;DHT22;12904;50.088;11.414;2023-11-22T13:45:20;2.20;99.90
24814;DHT22;12904;50.088;11.414;2023-11-22T13:47:54;2.20;99.90
24814;DHT22;12904;50.088;11.414;2023-11-22T13:50:26;2.20;99.90
24814;DHT22;12904;50.088;11.414;2023-11-22T13:52:53;2.10;99.90
24814;DHT22;12904;50.088;11.414;2023-11-22T13:55:19;2.10;99.90
24814;DHT22;12904;50.088;11.414;2023-11-22T13:57:49;2.10;99.90
24814;DHT22;12904;50.088;11.414;2023-11-22T14:00:16;2.00;99.90
24814;DHT22;12904;50.088;11.414;2023-11-22T14:02:46;1.90;99.90
24814;DHT22;12904;50.088;11.414;2023-11-22T14:05:12;1.90;99.90
24814;DHT22;12904;50.088;11.414;2023-11-22T14:07:38;1.90;99.90
24814;DHT22;12904;50.088;11.414;2023-11-22T14:10:04;1.90;99.90
24814;DHT22;12904;50.088;11.414;2023-11-22T14:12:32;2.00;99.90
24814;DHT22;12904;50.088;11.414;2023-11-22T14:14:58;2.00;99.90
24814;DHT22;12904;50.088;11.414;2023-11-22T14:17:24;2.00;99.90
24814;DHT22;12904;50.088;11.414;2023-11-22T14:19:53;2.00;99.90
24814;DHT22;12904;50.088;11.414;2023-11-22T14:22:20;2.00;99.90
24814;DHT22;12904;50.088;11.414;2023-11-22T14:24:48;2.10;99.90
24814;DHT22;12904;50.088;11.414;2023-11-22T14:27:14;2.00;99.90
24814;DHT22;12904;50.088;11.414;2023-11-22T14:29:40;2.00;99.90
24814;DHT22;12904;50.088;11.414;2023-11-22T14:32:07;2.00;99.90
24814;DHT22;12904;50.088;11.414;2023-11-22T14:34:33;2.00;99.90
24814;DHT22;12904;50.088;11.414;2023-11-22T14:36:59;2.00;99.90
24814;DHT22;12904;50.088;11.414;2023-11-22T14:39:24;2.00;99.90
24814;DHT22;12904;50.088;11.414;2023-11-22T14:41:50;1.90;99.90
24814;DHT22;12904;50.088;11.414;2023-11-22T14:44:16;1.90;99.90
24814;DHT22;12904;50.088;11.414;2023-11-22T14:46:43;1.90;99.90
24814;DHT22;12904;50.088;11.414;2023-11-22T14:49:09;1.90;99.90
24814;DHT22;12904;50.088;11.414;2023-11-22T14:51:35;1.90;99.90
24814;DHT22;12904;50.088;11.414;2023-11-22T14:54:00;1.90;99.90
24814;DHT22;12904;50.088;11.414;2023-11-22T14:56:26;1.80;99.90
24814;DHT22;12904;50.088;11.414;2023-11-22T14:58:52;1.70;99.90
24814;DHT22;12904;50.088;11.414;2023-11-22T15:01:22;1.70;99.90
24814;DHT22;12904;50.088;11.414;2023-11-22T15:03:49;1.60;99.90
24814;DHT22;12904;50.088;11.414;2023-11-22T15:06:17;1.60;99.90
24814;DHT22;12904;50.088;11.414;2023-11-22T15:08:43;1.60;99.90
24814;DHT22;12904;50.088;11.414;2023-11-22T15:11:08;1.60;99.90
24814;DHT22;12904;50.088;11.414;2023-11-22T15:13:35;1.60;99.90
24814;DHT22;12904;50.088;11.414;2023-11-22T15:16:03;1.50;99.90
24814;DHT22;12904;50.088;11.414;2023-11-22T15:18:29;1.50;99.90
24814;DHT22;12904;50.088;11.414;2023-11-22T15:20:56;1.40;99.90
24814;DHT22;12904;50.088;11.414;2023-11-22T15:23:21;1.40;99.90
24814;DHT22;12904;50.088;11.414;2023-11-22T15:25:47;1.40;99.90
24814;DHT22;12904;50.088;11.414;2023-11-22T15:28:13;1.40;99.90
24814;DHT22;12904;50.088;11.414;2023-11-22T15:30:47;1.40;99.90
24814;DHT22;12904;50.088;11.414;2023-11-22T15:33:14;1.40;99.90
24814;DHT22;12904;50.088;11.414;2023-11-22T15:35:41;1.40;99.90
24814;DHT22;12904;50.088;11.414;2023-11-22T15:38:06;1.40;99.90